sensor_id;sensor_type;location;lat;lon;timestamp;temperature;humidity
19007;DHT22;9636;47.382;8.480;2023-08-06T00:00:32;20.70;97.60
19007;DHT22;9636;47.382;8.480;2023-08-06T00:02:59;20.80;97.60
19007;DHT22;9636;47.382;8.480;2023-08-06T00:05:26;20.70;97.60
19007;DHT22;9636;47.382;8.480;2023-08-06T00:07:53;20.70;97.60
19007;DHT22;9636;47.382;8.480;2023-08-06T00:10:20;20.70;97.70
19007;DHT22;9636;47.382;8.480;2023-08-06T00:12:46;20.70;97.70
19007;DHT22;9636;47.382;8.480;2023-08-06T00:15:14;20.70;97.70
19007;DHT22;9636;47.382;8.480;2023-08-06T00:17:42;20.70;97.70
19007;DHT22;9636;47.382;8.480;2023-08-06T00:20:09;20.70;97.70
19007;DHT22;9636;47.382;8.480;2023-08-06T00:22:38;20.70;97.80
19007;DHT22;9636;47.382;8.480;2023-08-06T00:25:05;20.60;97.80
19007;DHT22;9636;47.382;8.480;2023-08-06T00:27:32;20.60;97.80
19007;DHT22;9636;47.382;8.480;2023-08-06T00:29:59;20.60;97.80
19007;DHT22;9636;47.382;8.480;2023-08-06T00:32:26;20.60;97.80
19007;DHT22;9636;47.382;8.480;2023-08-06T00:34:54;20.60;97.80
19007;DHT22;9636;47.382;8.480;2023-08-06T00:37:22;20.60;97.80
19007;DHT22;9636;47.382;8.480;2023-08-06T00:39:48;20.60;97.80
19007;DHT22;9636;47.382;8.480;2023-08-06T00:42:15;20.60;97.80
19007;DHT22;9636;47.382;8.480;2023-08-06T00:44:46;20.50;97.80
19007;DHT22;9636;47.382;8.480;2023-08-06T00:47:13;20.50;97.80
19007;DHT22;9636;47.382;8.480;2023-08-06T00:49:40;20.50;97.80
19007;DHT22;9636;47.382;8.480;2023-08-06T00:52:08;20.50;97.80
19007;DHT22;9636;47.382;8.480;2023-08-06T00:54:36;20.50;97.90
19007;DHT22;9636;47.382;8.480;2023-08-06T00:57:04;20.50;97.90
19007;DHT22;9636;47.382;8.480;2023-08-06T00:59:31;20.40;97.90
19007;DHT22;9636;47.382;8.480;2023-08-06T01:01:58;20.50;97.90
19007;DHT22;9636;47.382;8.480;2023-08-06T01:04:25;20.40;97.90
19007;DHT22;9636;47.382;8.480;2023-08-06T01:07:01;20.40;98.00
19007;DHT22;9636;47.382;8.480;2023-08-06T01:09:45;20.40;98.00
19007;DHT22;9636;47.382;8.480;2023-08-06T01:12:25;20.40;98.00
19007;DHT22;9636;47.382;8.480;2023-08-06T01:14:59;20.40;98.10
19007;DHT22;9636;47.382;8.480;2023-08-06T01:17:29;20.40;98.10
19007;DHT22;9636;47.382;8.480;2023-08-06T01:19:57;20.30;98.10
19007;DHT22;9636;47.382;8.480;2023-08-06T01:22:25;20.30;98.10
19007;DHT22;9636;47.382;8.480;2023-08-06T01:24:53;20.30;98.10
19007;DHT22;9636;47.382;8.480;2023-08-06T01:27:30;20.30;98.10
19007;DHT22;9636;47.382;8.480;2023-08-06T01:30:03;20.30;98.20
19007;DHT22;9636;47.382;8.480;2023-08-06T01:32:34;20.20;98.10
19007;DHT22;9636;47.382;8.480;2023-08-06T01:35:03;20.20;98.20
19007;DHT22;9636;47.382;8.480;2023-08-06T01:37:31;20.20;98.20
19007;DHT22;9636;47.382;8.480;2023-08-06T01:39:59;20.20;98.20
19007;DHT22;9636;47.382;8.480;2023-08-06T01:42:25;20.20;98.20
19007;DHT22;9636;47.382;8.480;2023-08-06T01:44:52;20.10;98.20
19007;DHT22;9636;47.382;8.480;2023-08-06T01:47:19;20.20;98.30
19007;DHT22;9636;47.382;8.480;2023-08-06T01:49:46;20.10;98.20
19007;DHT22;9636;47.382;8.480;2023-08-06T01:52:15;20.10;98.30
19007;DHT22;9636;47.382;8.480;2023-08-06T01:54:43;20.10;98.30
19007;DHT22;9636;47.382;8.480;2023-08-06T01:57:10;20.10;98.30
19007;DHT22;9636;47.382;8.480;2023-08-06T01:59:37;20.10;98.30
19007;DHT22;9636;47.382;8.480;2023-08-06T02:02:04;20.00;98.30
19007;DHT22;9636;47.382;8.480;2023-08-06T02:04:31;20.10;98.30
19007;DHT22;9636;47.382;8.480;2023-08-06T02:06:58;20.10;98.30
19007;DHT22;9636;47.382;8.480;2023-08-06T02:09:24;20.00;98.30
19007;DHT22;9636;47.382;8.480;2023-08-06T02:11:52;20.00;98.30
19007;DHT22;9636;47.382;8.480;2023-08-06T02:14:19;20.00;98.30
19007;DHT22;9636;47.382;8.480;2023-08-06T02:16:46;20.00;98.30
19007;DHT22;9636;47.382;8.480;2023-08-06T02:19:13;20.00;98.30
19007;DHT22;9636;47.382;8.480;2023-08-06T02:21:40;20.00;98.40
19007;DHT22;9636;47.382;8.480;2023-08-06T02:24:06;20.00;98.40
19007;DHT22;9636;47.382;8.480;2023-08-06T02:26:33;19.90;98.40
19007;DHT22;9636;47.382;8.480;2023-08-06T02:29:01;19.90;98.70
19007;DHT22;9636;47.382;8.480;2023-08-06T02:31:28;19.90;98.40
19007;DHT22;9636;47.382;8.480;2023-08-06T02:33:55;19.90;98.40
19007;DHT22;9636;47.382;8.480;2023-08-06T02:36:22;19.90;98.40
19007;DHT22;9636;47.382;8.480;2023-08-06T02:38:49;19.90;98.40
19007;DHT22;9636;47.382;8.480;2023-08-06T02:41:16;19.90;98.40
19007;DHT22;9636;47.382;8.480;2023-08-06T02:43:43;19.80;98.40
19007;DHT22;9636;47.382;8.480;2023-08-06T02:46:11;19.80;98.50
19007;DHT22;9636;47.382;8.480;2023-08-06T02:48:38;19.80;98.50
19007;DHT22;9636;47.382;8.480;2023-08-06T02:51:05;19.80;98.50
19007;DHT22;9636;47.382;8.480;2023-08-06T02:53:32;19.80;98.50
19007;DHT22;9636;47.382;8.480;2023-08-06T02:55:58;19.80;98.50
19007;DHT22;9636;47.382;8.480;2023-08-06T02:58:25;19.80;98.50
19007;DHT22;9636;47.382;8.480;2023-08-06T03:01:02;19.80;98.50
19007;DHT22;9636;47.382;8.480;2023-08-06T03:03:31;19.80;98.50
19007;DHT22;9636;47.382;8.480;2023-08-06T03:05:58;19.80;98.50
19007;DHT22;9636;47.382;8.480;2023-08-06T03:08:25;19.80;98.50
19007;DHT22;9636;47.382;8.480;2023-08-06T03:10:52;19.70;98.50
19007;DHT22;9636;47.382;8.480;2023-08-06T03:13:19;19.70;98.50
19007;DHT22;9636;47.382;8.480;2023-08-06T03:15:52;19.70;98.50
19007;DHT22;9636;47.382;8.480;2023-08-06T03:18:19;19.70;98.50
19007;DHT22;9636;47.382;8.480;2023-08-06T03:20:48;19.70;98.50
19007;DHT22;9636;47.382;8.480;2023-08-06T03:23:14;19.70;98.50
19007;DHT22;9636;47.382;8.480;2023-08-06T03:25:41;19.70;98.60
19007;DHT22;9636;47.382;8.480;2023-08-06T03:28:08;19.70;98.50
19007;DHT22;9636;47.382;8.480;2023-08-06T03:30:35;19.60;98.50
19007;DHT22;9636;47.382;8.480;2023-08-06T03:33:02;19.60;98.50
19007;DHT22;9636;47.382;8.480;2023-08-06T03:35:29;19.60;98.50
19007;DHT22;9636;47.382;8.480;2023-08-06T03:37:57;19.60;98.50
19007;DHT22;9636;47.382;8.480;2023-08-06T03:40:23;19.60;98.50
19007;DHT22;9636;47.382;8.480;2023-08-06T03:42:50;19.60;98.50
19007;DHT22;9636;47.382;8.480;2023-08-06T03:45:17;19.60;98.50
19007;DHT22;9636;47.382;8.480;2023-08-06T03:47:44;19.60;98.50
19007;DHT22;9636;47.382;8.480;2023-08-06T03:50:10;19.60;98.50
19007;DHT22;9636;47.382;8.480;2023-08-06T03:52:37;19.60;98.50
19007;DHT22;9636;47.382;8.480;2023-08-06T03:55:06;19.60;98.50
19007;DHT22;9636;47.382;8.480;2023-08-06T03:57:33;19.60;98.60
19007;DHT22;9636;47.382;8.480;2023-08-06T04:00:00;19.60;98.60
19007;DHT22;9636;47.382;8.480;2023-08-06T04:02:26;19.60;98.50
19007;DHT22;9636;47.382;8.480;2023-08-06T04:04:53;19.60;98.50
19007;DHT22;9636;47.382;8.480;2023-08-06T04:07:20;19.60;98.60
19007;DHT22;9636;47.382;8.480;2023-08-06T04:09:54;19.60;98.60
19007;DHT22;9636;47.382;8.480;2023-08-06T04:12:23;19.50;98.50
19007;DHT22;9636;47.382;8.480;2023-08-06T04:14:50;19.50;98.50
19007;DHT22;9636;47.382;8.480;2023-08-06T04:17:17;19.50;98.50
19007;DHT22;9636;47.382;8.480;2023-08-06T04:19:46;19.50;98.60
19007;DHT22;9636;47.382;8.480;2023-08-06T04:22:13;19.50;98.50
19007;DHT22;9636;47.382;8.480;2023-08-06T04:24:39;19.50;98.50
19007;DHT22;9636;47.382;8.480;2023-08-06T04:27:06;19.50;98.50
19007;DHT22;9636;47.382;8.480;2023-08-06T04:29:34;19.50;98.50
19007;DHT22;9636;47.382;8.480;2023-08-06T04:32:02;19.50;98.60
19007;DHT22;9636;47.382;8.480;2023-08-06T04:34:28;19.50;98.50
19007;DHT22;9636;47.382;8.480;2023-08-06T04:36:55;19.50;98.60
19007;DHT22;9636;47.382;8.480;2023-08-06T04:39:22;19.50;98.60
19007;DHT22;9636;47.382;8.480;2023-08-06T04:41:49;19.50;98.60
19007;DHT22;9636;47.382;8.480;2023-08-06T04:44:16;19.50;98.60
19007;DHT22;9636;47.382;8.480;2023-08-06T04:46:44;19.50;98.60
19007;DHT22;9636;47.382;8.480;2023-08-06T04:49:11;19.50;98.60
19007;DHT22;9636;47.382;8.480;2023-08-06T04:51:37;19.50;98.60
19007;DHT22;9636;47.382;8.480;2023-08-06T04:54:04;19.50;98.50
19007;DHT22;9636;47.382;8.480;2023-08-06T04:56:31;19.50;98.60
19007;DHT22;9636;47.382;8.480;2023-08-06T04:58:58;19.50;98.60
19007;DHT22;9636;47.382;8.480;2023-08-06T05:01:25;19.50;98.50
19007;DHT22;9636;47.382;8.480;2023-08-06T05:03:54;19.50;98.50
19007;DHT22;9636;47.382;8.480;2023-08-06T05:06:20;19.50;98.50
19007;DHT22;9636;47.382;8.480;2023-08-06T05:08:47;19.50;98.50
19007;DHT22;9636;47.382;8.480;2023-08-06T05:11:14;19.50;98.50
19007;DHT22;9636;47.382;8.480;2023-08-06T05:13:41;19.50;98.50
19007;DHT22;9636;47.382;8.480;2023-08-06T05:16:07;19.50;98.50
19007;DHT22;9636;47.382;8.480;2023-08-06T05:18:34;19.50;98.50
19007;DHT22;9636;47.382;8.480;2023-08-06T05:21:04;19.40;98.50
19007;DHT22;9636;47.382;8.480;2023-08-06T05:23:31;19.50;98.50
19007;DHT22;9636;47.382;8.480;2023-08-06T05:25:58;19.40;98.50
19007;DHT22;9636;47.382;8.480;2023-08-06T05:28:24;19.50;98.50
19007;DHT22;9636;47.382;8.480;2023-08-06T05:30:51;19.50;98.50
19007;DHT22;9636;47.382;8.480;2023-08-06T05:33:18;19.50;98.50
19007;DHT22;9636;47.382;8.480;2023-08-06T05:35:45;19.50;98.50
19007;DHT22;9636;47.382;8.480;2023-08-06T05:38:13;19.50;98.50
19007;DHT22;9636;47.382;8.480;2023-08-06T05:40:40;19.50;98.40
19007;DHT22;9636;47.382;8.480;2023-08-06T05:43:06;19.50;99.30
19007;DHT22;9636;47.382;8.480;2023-08-06T05:45:33;19.50;99.90
19007;DHT22;9636;47.382;8.480;2023-08-06T05:48:00;19.60;99.50
19007;DHT22;9636;47.382;8.480;2023-08-06T05:50:27;19.60;99.20
19007;DHT22;9636;47.382;8.480;2023-08-06T05:52:53;19.70;99.10
19007;DHT22;9636;47.382;8.480;2023-08-06T05:55:22;19.70;99.00
19007;DHT22;9636;47.382;8.480;2023-08-06T05:57:48;19.70;99.00
19007;DHT22;9636;47.382;8.480;2023-08-06T06:00:17;19.70;98.90
19007;DHT22;9636;47.382;8.480;2023-08-06T06:02:44;19.80;98.90
19007;DHT22;9636;47.382;8.480;2023-08-06T06:05:12;19.80;98.80
19007;DHT22;9636;47.382;8.480;2023-08-06T06:07:38;19.80;98.70
19007;DHT22;9636;47.382;8.480;2023-08-06T06:10:06;19.90;99.00
19007;DHT22;9636;47.382;8.480;2023-08-06T06:12:35;19.90;98.60
19007;DHT22;9636;47.382;8.480;2023-08-06T06:15:02;20.00;98.60
19007;DHT22;9636;47.382;8.480;2023-08-06T06:17:29;20.30;98.50
19007;DHT22;9636;47.382;8.480;2023-08-06T06:19:55;20.40;98.40
19007;DHT22;9636;47.382;8.480;2023-08-06T06:22:22;20.70;98.30
19007;DHT22;9636;47.382;8.480;2023-08-06T06:24:49;20.90;98.20
19007;DHT22;9636;47.382;8.480;2023-08-06T06:27:16;21.10;98.00
19007;DHT22;9636;47.382;8.480;2023-08-06T06:29:44;21.30;98.10
19007;DHT22;9636;47.382;8.480;2023-08-06T06:32:11;21.50;97.80
19007;DHT22;9636;47.382;8.480;2023-08-06T06:34:37;21.70;97.70
19007;DHT22;9636;47.382;8.480;2023-08-06T06:37:05;21.90;97.50
19007;DHT22;9636;47.382;8.480;2023-08-06T06:39:31;22.10;97.10
19007;DHT22;9636;47.382;8.480;2023-08-06T06:41:58;22.30;96.90
19007;DHT22;9636;47.382;8.480;2023-08-06T06:44:25;22.30;95.30
19007;DHT22;9636;47.382;8.480;2023-08-06T06:46:53;22.20;94.00
19007;DHT22;9636;47.382;8.480;2023-08-06T06:49:20;22.20;94.10
19007;DHT22;9636;47.382;8.480;2023-08-06T06:51:47;22.10;93.70
19007;DHT22;9636;47.382;8.480;2023-08-06T06:54:13;22.10;93.70
19007;DHT22;9636;47.382;8.480;2023-08-06T06:56:41;22.10;93.50
19007;DHT22;9636;47.382;8.480;2023-08-06T06:59:08;22.00;93.50
19007;DHT22;9636;47.382;8.480;2023-08-06T07:01:34;22.00;93.30
19007;DHT22;9636;47.382;8.480;2023-08-06T07:04:03;22.10;93.00
19007;DHT22;9636;47.382;8.480;2023-08-06T07:06:31;22.20;92.50
19007;DHT22;9636;47.382;8.480;2023-08-06T07:08:58;22.30;92.60
19007;DHT22;9636;47.382;8.480;2023-08-06T07:11:25;22.40;92.80
19007;DHT22;9636;47.382;8.480;2023-08-06T07:13:56;22.50;92.90
19007;DHT22;9636;47.382;8.480;2023-08-06T07:16:24;22.60;92.90
19007;DHT22;9636;47.382;8.480;2023-08-06T07:18:51;22.60;93.10
19007;DHT22;9636;47.382;8.480;2023-08-06T07:21:20;22.60;93.20
19007;DHT22;9636;47.382;8.480;2023-08-06T07:23:47;22.70;93.30
19007;DHT22;9636;47.382;8.480;2023-08-06T07:26:14;22.80;93.40
19007;DHT22;9636;47.382;8.480;2023-08-06T07:28:41;22.90;93.40
19007;DHT22;9636;47.382;8.480;2023-08-06T07:31:08;23.00;93.50
19007;DHT22;9636;47.382;8.480;2023-08-06T07:33:35;23.00;93.60
19007;DHT22;9636;47.382;8.480;2023-08-06T07:36:08;23.00;93.70
19007;DHT22;9636;47.382;8.480;2023-08-06T07:38:36;22.90;93.80
19007;DHT22;9636;47.382;8.480;2023-08-06T07:41:03;23.00;93.90
19007;DHT22;9636;47.382;8.480;2023-08-06T07:43:30;22.90;94.00
19007;DHT22;9636;47.382;8.480;2023-08-06T07:45:58;23.00;94.00
19007;DHT22;9636;47.382;8.480;2023-08-06T07:48:25;23.00;94.00
19007;DHT22;9636;47.382;8.480;2023-08-06T07:50:52;23.00;94.10
19007;DHT22;9636;47.382;8.480;2023-08-06T07:53:19;23.00;94.10
19007;DHT22;9636;47.382;8.480;2023-08-06T07:55:49;22.90;94.10
19007;DHT22;9636;47.382;8.480;2023-08-06T07:58:17;23.00;94.20
19007;DHT22;9636;47.382;8.480;2023-08-06T08:00:43;23.00;94.30
19007;DHT22;9636;47.382;8.480;2023-08-06T08:03:11;23.00;94.30
19007;DHT22;9636;47.382;8.480;2023-08-06T08:05:39;23.00;94.30
19007;DHT22;9636;47.382;8.480;2023-08-06T08:08:06;23.00;94.30
19007;DHT22;9636;47.382;8.480;2023-08-06T08:10:33;23.00;94.40
19007;DHT22;9636;47.382;8.480;2023-08-06T08:13:01;23.00;94.50
19007;DHT22;9636;47.382;8.480;2023-08-06T08:15:28;22.90;94.60
19007;DHT22;9636;47.382;8.480;2023-08-06T08:17:55;22.90;94.70
19007;DHT22;9636;47.382;8.480;2023-08-06T08:20:22;22.90;94.70
19007;DHT22;9636;47.382;8.480;2023-08-06T08:22:49;22.90;94.80
19007;DHT22;9636;47.382;8.480;2023-08-06T08:25:16;22.90;94.90
19007;DHT22;9636;47.382;8.480;2023-08-06T08:27:43;22.90;95.00
19007;DHT22;9636;47.382;8.480;2023-08-06T08:30:11;22.90;95.20
19007;DHT22;9636;47.382;8.480;2023-08-06T08:32:38;22.90;95.30
19007;DHT22;9636;47.382;8.480;2023-08-06T08:35:05;22.80;95.40
19007;DHT22;9636;47.382;8.480;2023-08-06T08:37:32;22.80;95.60
19007;DHT22;9636;47.382;8.480;2023-08-06T08:39:59;22.80;95.70
19007;DHT22;9636;47.382;8.480;2023-08-06T08:42:26;22.80;95.80
19007;DHT22;9636;47.382;8.480;2023-08-06T08:44:54;22.80;95.90
19007;DHT22;9636;47.382;8.480;2023-08-06T08:47:23;22.80;96.00
19007;DHT22;9636;47.382;8.480;2023-08-06T08:49:54;22.80;96.10
19007;DHT22;9636;47.382;8.480;2023-08-06T08:52:21;22.80;96.10
19007;DHT22;9636;47.382;8.480;2023-08-06T08:54:49;22.80;96.00
19007;DHT22;9636;47.382;8.480;2023-08-06T08:57:18;22.90;96.00
19007;DHT22;9636;47.382;8.480;2023-08-06T08:59:45;22.80;95.90
19007;DHT22;9636;47.382;8.480;2023-08-06T09:02:13;22.90;95.90
19007;DHT22;9636;47.382;8.480;2023-08-06T09:04:44;23.00;95.90
19007;DHT22;9636;47.382;8.480;2023-08-06T09:07:17;23.00;95.90
19007;DHT22;9636;47.382;8.480;2023-08-06T09:09:48;23.00;95.80
19007;DHT22;9636;47.382;8.480;2023-08-06T09:12:16;23.10;95.80
19007;DHT22;9636;47.382;8.480;2023-08-06T09:14:43;23.10;95.70
19007;DHT22;9636;47.382;8.480;2023-08-06T09:17:10;23.10;95.80
19007;DHT22;9636;47.382;8.480;2023-08-06T09:19:37;23.10;95.80
19007;DHT22;9636;47.382;8.480;2023-08-06T09:22:05;23.10;95.90
19007;DHT22;9636;47.382;8.480;2023-08-06T09:24:38;23.00;96.00
19007;DHT22;9636;47.382;8.480;2023-08-06T09:27:10;23.00;96.00
19007;DHT22;9636;47.382;8.480;2023-08-06T09:29:41;23.00;96.00
19007;DHT22;9636;47.382;8.480;2023-08-06T09:32:08;23.00;96.00
19007;DHT22;9636;47.382;8.480;2023-08-06T09:34:35;23.00;96.00
19007;DHT22;9636;47.382;8.480;2023-08-06T09:37:07;23.10;96.30
19007;DHT22;9636;47.382;8.480;2023-08-06T09:39:35;23.10;96.00
19007;DHT22;9636;47.382;8.480;2023-08-06T09:42:02;23.10;96.00
19007;DHT22;9636;47.382;8.480;2023-08-06T09:44:31;23.20;95.80
19007;DHT22;9636;47.382;8.480;2023-08-06T09:46:59;23.40;95.70
19007;DHT22;9636;47.382;8.480;2023-08-06T09:49:27;23.40;95.70
19007;DHT22;9636;47.382;8.480;2023-08-06T09:51:54;23.50;95.60
19007;DHT22;9636;47.382;8.480;2023-08-06T09:54:25;23.50;95.50
19007;DHT22;9636;47.382;8.480;2023-08-06T09:56:53;23.50;95.50
19007;DHT22;9636;47.382;8.480;2023-08-06T09:59:20;23.50;95.50
19007;DHT22;9636;47.382;8.480;2023-08-06T10:01:47;23.60;95.60
19007;DHT22;9636;47.382;8.480;2023-08-06T10:04:15;23.50;95.50
19007;DHT22;9636;47.382;8.480;2023-08-06T10:06:46;23.50;95.60
19007;DHT22;9636;47.382;8.480;2023-08-06T10:09:13;23.50;95.70
19007;DHT22;9636;47.382;8.480;2023-08-06T10:11:42;23.50;95.70
19007;DHT22;9636;47.382;8.480;2023-08-06T10:14:12;23.50;95.60
19007;DHT22;9636;47.382;8.480;2023-08-06T10:16:42;23.50;95.70
19007;DHT22;9636;47.382;8.480;2023-08-06T10:19:10;23.50;95.70
19007;DHT22;9636;47.382;8.480;2023-08-06T10:21:38;23.50;95.70
19007;DHT22;9636;47.382;8.480;2023-08-06T10:24:07;23.50;95.80
19007;DHT22;9636;47.382;8.480;2023-08-06T10:26:36;23.50;95.80
19007;DHT22;9636;47.382;8.480;2023-08-06T10:29:37;23.50;95.80
19007;DHT22;9636;47.382;8.480;2023-08-06T10:32:04;23.50;95.80
19007;DHT22;9636;47.382;8.480;2023-08-06T10:34:53;23.60;95.80
19007;DHT22;9636;47.382;8.480;2023-08-06T10:37:20;23.60;95.70
19007;DHT22;9636;47.382;8.480;2023-08-06T10:39:49;23.60;95.70
19007;DHT22;9636;47.382;8.480;2023-08-06T10:42:20;23.60;95.60
19007;DHT22;9636;47.382;8.480;2023-08-06T10:45:17;23.70;95.50
19007;DHT22;9636;47.382;8.480;2023-08-06T10:47:45;23.70;95.50
19007;DHT22;9636;47.382;8.480;2023-08-06T10:50:12;23.70;95.60
19007;DHT22;9636;47.382;8.480;2023-08-06T10:52:42;23.70;95.70
19007;DHT22;9636;47.382;8.480;2023-08-06T10:55:09;23.70;95.70
19007;DHT22;9636;47.382;8.480;2023-08-06T10:57:36;23.70;95.80
19007;DHT22;9636;47.382;8.480;2023-08-06T11:00:04;23.70;95.80
19007;DHT22;9636;47.382;8.480;2023-08-06T11:02:35;23.80;95.80
19007;DHT22;9636;47.382;8.480;2023-08-06T11:05:06;23.90;95.80
19007;DHT22;9636;47.382;8.480;2023-08-06T11:07:33;23.90;95.90
19007;DHT22;9636;47.382;8.480;2023-08-06T11:10:04;23.80;95.90
19007;DHT22;9636;47.382;8.480;2023-08-06T11:12:31;23.90;94.00
19007;DHT22;9636;47.382;8.480;2023-08-06T11:14:57;23.80;92.80
19007;DHT22;9636;47.382;8.480;2023-08-06T11:17:25;23.70;92.50
19007;DHT22;9636;47.382;8.480;2023-08-06T11:19:53;23.70;92.30
19007;DHT22;9636;47.382;8.480;2023-08-06T11:22:20;23.70;92.20
19007;DHT22;9636;47.382;8.480;2023-08-06T11:24:48;23.70;92.40
19007;DHT22;9636;47.382;8.480;2023-08-06T11:27:16;23.60;92.40
19007;DHT22;9636;47.382;8.480;2023-08-06T11:29:43;23.70;92.40
19007;DHT22;9636;47.382;8.480;2023-08-06T11:32:11;23.70;92.60
19007;DHT22;9636;47.382;8.480;2023-08-06T11:34:39;23.70;92.60
19007;DHT22;9636;47.382;8.480;2023-08-06T11:37:08;23.60;92.80
19007;DHT22;9636;47.382;8.480;2023-08-06T11:39:37;23.60;92.70
19007;DHT22;9636;47.382;8.480;2023-08-06T11:42:04;23.70;92.80
19007;DHT22;9636;47.382;8.480;2023-08-06T11:44:32;23.70;92.80
19007;DHT22;9636;47.382;8.480;2023-08-06T11:47:00;23.80;92.80
19007;DHT22;9636;47.382;8.480;2023-08-06T11:49:38;23.80;92.90
19007;DHT22;9636;47.382;8.480;2023-08-06T11:52:12;23.80;93.10
19007;DHT22;9636;47.382;8.480;2023-08-06T11:54:39;23.80;93.10
19007;DHT22;9636;47.382;8.480;2023-08-06T11:57:07;23.80;93.30
19007;DHT22;9636;47.382;8.480;2023-08-06T11:59:35;23.80;93.30
19007;DHT22;9636;47.382;8.480;2023-08-06T12:02:04;23.90;93.30
19007;DHT22;9636;47.382;8.480;2023-08-06T12:04:32;23.90;93.40
19007;DHT22;9636;47.382;8.480;2023-08-06T12:07:05;24.00;93.40
19007;DHT22;9636;47.382;8.480;2023-08-06T12:09:34;24.00;93.30
19007;DHT22;9636;47.382;8.480;2023-08-06T12:12:02;24.10;93.00
19007;DHT22;9636;47.382;8.480;2023-08-06T12:14:29;24.10;93.30
19007;DHT22;9636;47.382;8.480;2023-08-06T12:16:56;24.00;93.40
19007;DHT22;9636;47.382;8.480;2023-08-06T12:19:22;24.00;93.50
19007;DHT22;9636;47.382;8.480;2023-08-06T12:21:49;24.00;93.60
19007;DHT22;9636;47.382;8.480;2023-08-06T12:24:16;23.90;93.60
19007;DHT22;9636;47.382;8.480;2023-08-06T12:26:44;24.00;93.60
19007;DHT22;9636;47.382;8.480;2023-08-06T12:29:11;24.00;93.60
19007;DHT22;9636;47.382;8.480;2023-08-06T12:31:38;24.00;93.60
19007;DHT22;9636;47.382;8.480;2023-08-06T12:34:05;24.10;93.70
19007;DHT22;9636;47.382;8.480;2023-08-06T12:36:31;24.00;93.70
19007;DHT22;9636;47.382;8.480;2023-08-06T12:38:58;24.10;93.80
19007;DHT22;9636;47.382;8.480;2023-08-06T12:41:25;24.10;93.70
19007;DHT22;9636;47.382;8.480;2023-08-06T12:43:53;24.10;93.70
19007;DHT22;9636;47.382;8.480;2023-08-06T12:46:20;24.30;93.60
19007;DHT22;9636;47.382;8.480;2023-08-06T12:48:47;24.40;93.40
19007;DHT22;9636;47.382;8.480;2023-08-06T12:51:14;24.40;93.50
19007;DHT22;9636;47.382;8.480;2023-08-06T12:53:41;24.30;93.60
19007;DHT22;9636;47.382;8.480;2023-08-06T12:56:07;24.30;93.60
19007;DHT22;9636;47.382;8.480;2023-08-06T12:58:34;24.30;93.60
19007;DHT22;9636;47.382;8.480;2023-08-06T13:01:02;24.40;93.60
19007;DHT22;9636;47.382;8.480;2023-08-06T13:03:29;24.50;93.50
19007;DHT22;9636;47.382;8.480;2023-08-06T13:05:56;24.50;93.50
19007;DHT22;9636;47.382;8.480;2023-08-06T13:08:24;24.50;93.90
19007;DHT22;9636;47.382;8.480;2023-08-06T13:10:50;24.50;93.60
19007;DHT22;9636;47.382;8.480;2023-08-06T13:13:17;24.40;93.70
19007;DHT22;9636;47.382;8.480;2023-08-06T13:15:44;24.40;93.80
19007;DHT22;9636;47.382;8.480;2023-08-06T13:18:12;24.40;93.90
19007;DHT22;9636;47.382;8.480;2023-08-06T13:20:39;24.40;94.20
19007;DHT22;9636;47.382;8.480;2023-08-06T13:23:06;24.50;93.80
19007;DHT22;9636;47.382;8.480;2023-08-06T13:25:33;24.50;93.70
19007;DHT22;9636;47.382;8.480;2023-08-06T13:28:02;24.70;93.50
19007;DHT22;9636;47.382;8.480;2023-08-06T13:30:29;24.80;93.50
19007;DHT22;9636;47.382;8.480;2023-08-06T13:32:56;24.90;93.50
19007;DHT22;9636;47.382;8.480;2023-08-06T13:35:25;24.90;93.50
19007;DHT22;9636;47.382;8.480;2023-08-06T13:37:51;25.00;93.40
19007;DHT22;9636;47.382;8.480;2023-08-06T13:40:19;25.20;93.30
19007;DHT22;9636;47.382;8.480;2023-08-06T13:42:46;25.30;93.20
19007;DHT22;9636;47.382;8.480;2023-08-06T13:45:13;25.30;93.10
19007;DHT22;9636;47.382;8.480;2023-08-06T13:47:40;25.40;93.00
19007;DHT22;9636;47.382;8.480;2023-08-06T13:50:08;25.40;92.80
19007;DHT22;9636;47.382;8.480;2023-08-06T13:52:36;25.40;92.80
19007;DHT22;9636;47.382;8.480;2023-08-06T13:55:03;25.40;92.50
19007;DHT22;9636;47.382;8.480;2023-08-06T13:57:30;25.40;92.30
19007;DHT22;9636;47.382;8.480;2023-08-06T13:59:57;25.30;92.50
19007;DHT22;9636;47.382;8.480;2023-08-06T14:02:24;25.30;92.50
19007;DHT22;9636;47.382;8.480;2023-08-06T14:04:52;25.20;92.50
19007;DHT22;9636;47.382;8.480;2023-08-06T14:07:19;25.20;92.50
19007;DHT22;9636;47.382;8.480;2023-08-06T14:09:47;25.30;92.50
19007;DHT22;9636;47.382;8.480;2023-08-06T14:12:15;25.30;92.40
19007;DHT22;9636;47.382;8.480;2023-08-06T14:14:41;25.30;92.50
19007;DHT22;9636;47.382;8.480;2023-08-06T14:17:08;25.20;92.50
19007;DHT22;9636;47.382;8.480;2023-08-06T14:19:35;25.10;92.80
19007;DHT22;9636;47.382;8.480;2023-08-06T14:22:02;25.10;92.90
19007;DHT22;9636;47.382;8.480;2023-08-06T14:24:28;25.20;92.60
19007;DHT22;9636;47.382;8.480;2023-08-06T14:26:57;25.30;92.60
19007;DHT22;9636;47.382;8.480;2023-08-06T14:29:23;25.30;92.40
19007;DHT22;9636;47.382;8.480;2023-08-06T14:31:50;25.30;92.30
19007;DHT22;9636;47.382;8.480;2023-08-06T14:34:18;25.30;92.50
19007;DHT22;9636;47.382;8.480;2023-08-06T14:36:44;25.30;92.50
19007;DHT22;9636;47.382;8.480;2023-08-06T14:39:11;25.30;92.60
19007;DHT22;9636;47.382;8.480;2023-08-06T14:41:38;25.30;92.50
19007;DHT22;9636;47.382;8.480;2023-08-06T14:44:06;25.30;92.60
19007;DHT22;9636;47.382;8.480;2023-08-06T14:46:33;25.30;92.60
19007;DHT22;9636;47.382;8.480;2023-08-06T14:49:00;25.30;91.20
19007;DHT22;9636;47.382;8.480;2023-08-06T14:51:27;25.00;91.40
19007;DHT22;9636;47.382;8.480;2023-08-06T14:53:54;25.00;92.00
19007;DHT22;9636;47.382;8.480;2023-08-06T14:56:20;25.00;92.10
19007;DHT22;9636;47.382;8.480;2023-08-06T14:58:47;25.00;92.30
19007;DHT22;9636;47.382;8.480;2023-08-06T15:01:15;25.00;92.10
19007;DHT22;9636;47.382;8.480;2023-08-06T15:03:42;25.00;92.10
19007;DHT22;9636;47.382;8.480;2023-08-06T15:06:09;25.10;92.10
19007;DHT22;9636;47.382;8.480;2023-08-06T15:08:35;25.20;92.00
19007;DHT22;9636;47.382;8.480;2023-08-06T15:11:02;25.30;91.80
19007;DHT22;9636;47.382;8.480;2023-08-06T15:13:29;25.30;91.90
19007;DHT22;9636;47.382;8.480;2023-08-06T15:15:56;25.20;91.90
19007;DHT22;9636;47.382;8.480;2023-08-06T15:18:24;25.20;91.80
19007;DHT22;9636;47.382;8.480;2023-08-06T15:20:51;25.20;92.30
19007;DHT22;9636;47.382;8.480;2023-08-06T15:23:18;25.20;92.00
19007;DHT22;9636;47.382;8.480;2023-08-06T15:25:45;25.10;92.00
19007;DHT22;9636;47.382;8.480;2023-08-06T15:28:11;25.00;92.20
19007;DHT22;9636;47.382;8.480;2023-08-06T15:30:38;25.00;92.10
19007;DHT22;9636;47.382;8.480;2023-08-06T15:33:06;25.00;92.20
19007;DHT22;9636;47.382;8.480;2023-08-06T15:35:34;25.00;92.20
19007;DHT22;9636;47.382;8.480;2023-08-06T15:38:01;25.00;92.20
19007;DHT22;9636;47.382;8.480;2023-08-06T15:40:28;25.00;92.20
19007;DHT22;9636;47.382;8.480;2023-08-06T15:42:55;25.00;92.30
19007;DHT22;9636;47.382;8.480;2023-08-06T15:45:21;25.00;92.10
19007;DHT22;9636;47.382;8.480;2023-08-06T15:47:48;24.90;92.40